Time;durP1;ratioP1;P1;durP2;ratioP2;P2;SDS_P1;SDS_P2;PMS_P1;PMS_P2;Temp;Humidity;BMP_temperature;BMP_pressure;BME280_temperature;BME280_humidity;BME280_pressure;Samples;Min_cycle;Max_cycle;Signal;HPM_P1;HPM_P2
2022/04/27 00:00:56;;;;;;;6.20;3.53;;;10.40;1.00;;;10.16;57.95;101473.69;4790175;29;20399;-66
2022/04/27 00:03:27;;;;;;;4.30;3.90;;;10.30;1.00;;;10.12;58.21;101472.31;4789039;29;20833;-66
2022/04/27 00:05:56;;;;;;;4.23;3.13;;;10.20;1.00;;;10.11;58.37;101476.06;4790065;29;20480;-66
2022/04/27 00:08:25;;;;;;;5.17;3.70;;;10.10;1.00;;;9.94;58.81;101472.66;4790279;29;20462;-67
2022/04/27 00:10:54;;;;;;;4.43;3.13;;;10.10;1.00;;;10.01;58.63;101481.75;4789935;29;20442;-66
2022/04/27 00:13:23;;;;;;;5.38;4.40;;;10.10;1.00;;;10.02;58.61;101488.00;4789902;29;20804;-66
2022/04/27 00:15:51;;;;;;;4.05;3.50;;;10.10;1.00;;;9.98;58.98;101481.25;4790069;29;20595;-68
2022/04/27 00:18:21;;;;;;;4.10;3.10;;;10.00;1.00;;;9.81;59.60;101485.97;4789888;29;20218;-67
2022/04/27 00:20:51;;;;;;;4.30;3.10;;;10.00;1.00;;;9.75;59.70;101480.44;4789794;29;20432;-67
2022/04/27 00:23:21;;;;;;;7.07;3.67;;;9.90;1.00;;;9.54;60.36;101478.44;4789818;29;20225;-67
2022/04/27 00:25:49;;;;;;;5.35;3.60;;;9.70;1.00;;;9.52;60.39;101480.50;4790128;29;20179;-67
2022/04/27 00:28:18;;;;;;;4.75;2.65;;;9.70;1.00;;;9.41;60.99;101480.91;4789970;29;20229;-67
2022/04/27 00:30:47;;;;;;;8.05;4.07;;;9.60;1.00;;;9.49;60.71;101487.06;4790317;29;20183;-67
2022/04/27 00:33:16;;;;;;;6.00;3.30;;;9.50;1.00;;;9.59;60.37;101471.47;4790198;29;20205;-66
2022/04/27 00:35:45;;;;;;;6.43;4.50;;;9.60;1.00;;;9.48;60.80;101479.19;4789755;29;20194;-66
2022/04/27 00:38:15;;;;;;;5.28;3.55;;;9.50;1.00;;;9.49;60.57;101480.81;4789768;29;20596;-66
2022/04/27 00:40:44;;;;;;;5.32;4.57;;;9.50;1.00;;;9.39;60.94;101489.19;4789676;29;20183;-66
2022/04/27 00:43:15;;;;;;;5.47;4.05;;;9.50;1.00;;;9.38;61.07;101489.38;4790078;29;20645;-66
2022/04/27 00:45:44;;;;;;;4.93;3.33;;;9.40;1.00;;;9.30;61.23;101478.63;4789253;30;20680;-65
2022/04/27 00:48:13;;;;;;;7.22;3.90;;;9.40;1.00;;;9.28;61.31;101488.78;4790189;29;20478;-67
2022/04/27 00:50:42;;;;;;;4.80;3.55;;;9.40;1.00;;;9.18;61.70;101497.09;4790946;29;20246;-66
2022/04/27 00:53:11;;;;;;;6.03;4.07;;;9.30;1.00;;;9.21;61.57;101490.50;4789881;29;20232;-68
2022/04/27 00:55:41;;;;;;;4.03;3.58;;;9.20;1.00;;;9.12;61.81;101492.41;4788694;29;20206;-67
2022/04/27 00:58:15;;;;;;;3.85;3.33;;;9.20;1.00;;;9.21;61.54;101495.91;4789966;29;20632;-66
2022/04/27 01:01:04;;;;;;;6.40;3.70;;;9.20;12.20;;;9.13;61.45;101497.66;4788817;30;20737;-66
2022/04/27 01:03:36;;;;;;;4.25;3.58;;;9.20;1.00;;;8.93;62.20;101509.91;4789350;29;20207;-66
2022/04/27 01:06:06;;;;;;;5.03;3.70;;;9.10;1.00;;;8.82;62.69;101509.44;4789474;29;20197;-68
2022/04/27 01:08:35;;;;;;;5.85;3.40;;;9.00;1.00;;;8.85;62.54;101512.66;4788532;29;20222;-66
2022/04/27 01:11:07;;;;;;;3.78;3.45;;;8.90;1.00;;;8.67;63.00;101507.47;4787521;29;20594;-68
2022/04/27 01:13:45;;;;;;;5.53;3.67;;;8.80;1.00;;;8.60;63.27;101505.66;4803396;29;20236;-66
2022/04/27 01:16:14;;;;;;;7.38;4.15;;;8.70;1.00;;;8.53;63.46;101510.91;4789572;29;20265;-65
2022/04/27 01:18:44;;;;;;;5.78;3.53;;;8.60;1.00;;;8.71;62.90;101516.09;4788571;30;20225;-66
2022/04/27 01:21:39;;;;;;;6.00;3.80;;;8.70;1.00;;;8.58;63.25;101515.78;4790006;29;20191;-66
2022/04/27 01:24:10;;;;;;;3.60;2.38;;;8.60;1.00;;;8.37;64.30;101526.31;4789479;29;20187;-65
2022/04/27 01:26:39;;;;;;;3.67;3.10;;;8.50;1.00;;;8.24;64.70;101522.25;4788188;29;20213;-66
2022/04/27 01:29:07;;;;;;;6.80;3.78;;;8.40;1.00;;;8.19;64.87;101524.63;4789781;29;20753;-66
2022/04/27 01:31:36;;;;;;;6.03;4.18;;;8.30;1.00;;;8.16;65.07;101527.66;4789714;29;20265;-66
2022/04/27 01:34:05;;;;;;;6.90;4.93;;;8.30;1.00;;;8.15;64.76;101523.28;4787940;29;20202;-65
2022/04/27 01:36:34;;;;;;;4.05;3.20;;;8.30;1.00;;;8.05;65.21;101533.41;4789179;29;20625;-66
2022/04/27 01:39:05;;;;;;;4.80;3.45;;;8.20;1.00;;;8.00;65.36;101527.69;4787741;29;20232;-66
2022/04/27 01:41:34;;;;;;;7.05;3.88;;;8.20;1.00;;;7.90;65.94;101532.41;4789117;29;20239;-65
2022/04/27 01:44:04;;;;;;;5.18;4.05;;;8.00;1.00;;;7.90;66.17;101532.41;4787895;29;20226;-66
2022/04/27 01:46:33;;;;;;;6.72;4.15;;;8.00;1.00;;;7.97;66.12;101538.81;4787836;29;20256;-66
2022/04/27 01:49:03;;;;;;;6.97;5.18;;;8.00;1.00;;;7.88;66.12;101536.28;4789349;29;20221;-66
2022/04/27 01:54:16;;;;;;;6.68;4.03;;;7.90;1.00;;;7.70;66.48;101541.81;4777985;29;20209;-66
2022/04/27 01:56:50;;;;;;;5.90;3.35;;;7.90;1.00;;;7.65;66.91;101539.63;4787404;29;20293;-65
2022/04/27 01:59:22;;;;;;;5.07;4.35;;;7.80;1.00;;;7.75;66.99;101543.00;4787662;29;20807;-66
2022/04/27 02:01:53;;;;;;;6.90;4.45;;;7.80;1.00;;;7.64;67.38;101545.22;4787373;29;20221;-65
2022/04/27 02:04:22;;;;;;;16.92;4.60;;;7.80;1.00;;;7.62;67.35;101555.31;4788796;29;20216;-66
2022/04/27 02:06:51;;;;;;;4.90;3.80;;;7.70;1.00;;;7.54;67.47;101552.59;4788637;29;20637;-66
2022/04/27 02:09:21;;;;;;;7.57;4.95;;;7.60;1.00;;;7.56;67.46;101556.81;4788724;29;20218;-66
2022/04/27 02:11:53;;;;;;;7.38;4.93;;;7.60;1.00;;;7.53;67.46;101564.38;4823966;24;20253;-69
2022/04/27 02:14:23;;;;;;;4.30;3.58;;;7.60;1.00;;;7.48;67.73;101564.03;4812102;29;20204;-66
2022/04/27 02:16:52;;;;;;;6.22;4.35;;;7.50;1.00;;;7.57;67.72;101563.03;4812058;29;20216;-69
2022/04/27 02:19:21;;;;;;;5.35;4.10;;;7.60;1.00;;;7.32;67.81;101552.22;4810394;29;20244;-68
2022/04/27 02:21:50;;;;;;;8.18;4.95;;;7.50;1.00;;;7.31;68.24;101558.59;4820203;29;20609;-68
2022/04/27 02:24:20;;;;;;;5.90;4.55;;;7.50;1.00;;;7.15;68.54;101561.28;4825114;29;20293;-69
2022/04/27 02:26:49;;;;;;;9.20;5.57;;;7.40;1.00;;;7.20;68.65;101561.63;4823117;29;20296;-68
2022/04/27 02:29:20;;;;;;;6.63;4.75;;;7.30;1.00;;;7.10;68.79;101557.38;4824540;29;20249;-68
2022/04/27 02:31:49;;;;;;;4.22;3.75;;;7.30;1.00;;;7.04;69.06;101553.50;4822583;29;20327;-68
2022/04/27 02:34:18;;;;;;;6.15;4.57;;;7.20;1.00;;;7.23;68.56;101558.59;4824172;29;20196;-69
2022/04/27 02:36:47;;;;;;;7.50;4.93;;;7.30;1.00;;;7.20;68.44;101564.31;4823320;29;20299;-67
2022/04/27 02:39:16;;;;;;;5.93;3.50;;;7.30;1.00;;;7.09;68.88;101567.31;4823370;29;20234;-69
2022/04/27 02:41:47;;;;;;;7.78;4.63;;;7.30;1.00;;;7.08;68.71;101575.53;4823622;29;20722;-69
2022/04/27 02:44:16;;;;;;;7.85;5.78;;;7.20;1.00;;;7.11;68.68;101570.69;4822753;29;20231;-69
2022/04/27 02:46:45;;;;;;;6.93;4.80;;;7.20;1.00;;;7.12;68.75;101564.28;4822993;29;20204;-68
2022/04/27 02:52:01;;;;;;;6.78;5.75;;;7.20;1.00;;;6.88;69.41;101573.09;4832449;29;20228;-69
2022/04/27 02:55:09;;;;;;;5.45;4.95;;;7.10;1.00;;;6.98;68.52;101581.06;4844881;29;20231;-69
2022/04/27 02:57:40;;;;;;;4.88;4.43;;;7.10;1.00;;;6.83;69.24;101574.59;4837783;29;20208;-68
2022/04/27 03:00:10;;;;;;;5.75;4.47;;;7.00;1.00;;;6.90;69.76;101572.94;4837538;29;20293;-68
2022/04/27 03:02:41;;;;;;;5.97;4.85;;;7.00;1.00;;;6.83;69.36;101582.66;4838429;29;20204;-69
2022/04/27 03:05:10;;;;;;;5.85;4.40;;;7.00;1.00;;;6.77;69.72;101586.88;4838486;29;20205;-69
2022/04/27 03:07:39;;;;;;;11.18;5.15;;;7.00;1.00;;;6.67;70.19;101578.06;4840501;29;20205;-69
2022/04/27 03:10:10;;;;;;;5.65;4.25;;;6.90;1.00;;;6.62;70.09;101576.84;4838476;29;20209;-70
2022/04/27 03:12:40;;;;;;;5.57;4.25;;;6.90;1.00;;;6.70;70.17;101582.28;4826339;29;20208;-68
2022/04/27 03:15:10;;;;;;;7.63;4.60;;;6.90;1.00;;;6.91;69.03;101586.25;4824949;29;20217;-69
2022/04/27 03:17:39;;;;;;;7.47;5.97;;;7.00;1.00;;;6.81;69.45;101587.38;4823063;29;20615;-69
2022/04/27 03:20:10;;;;;;;8.38;4.93;;;6.90;1.00;;;6.75;69.83;101588.00;4822690;29;20790;-68
2022/04/27 03:22:40;;;;;;;7.57;4.30;;;6.90;1.00;;;6.76;69.81;101585.16;4822813;29;20208;-69
2022/04/27 03:25:10;;;;;;;6.85;5.00;;;6.90;1.00;;;6.64;70.04;101589.13;4822781;29;20311;-69
2022/04/27 03:27:40;;;;;;;5.90;4.00;;;6.80;1.00;;;6.60;69.82;101589.59;4822706;29;20200;-70
2022/04/27 03:30:11;;;;;;;9.07;5.13;;;6.80;1.00;;;6.63;69.88;101597.38;4822917;29;20232;-68
2022/04/27 03:32:40;;;;;;;7.63;5.63;;;6.70;1.00;;;6.70;69.70;101598.41;4823889;29;20205;-69
2022/04/27 03:35:10;;;;;;;7.18;5.53;;;6.80;1.00;;;6.60;69.97;101603.06;4827075;29;20276;-68
2022/04/27 03:37:39;;;;;;;7.70;5.20;;;6.80;1.00;;;6.61;69.70;101604.75;4825838;29;20220;-68
2022/04/27 03:40:09;;;;;;;7.13;4.72;;;6.80;1.00;;;6.61;69.68;101602.91;4826197;29;20618;-67
2022/04/27 03:42:40;;;;;;;8.65;5.13;;;6.80;1.00;;;6.58;69.89;101607.78;4827944;29;20197;-67
2022/04/27 03:45:10;;;;;;;7.35;4.40;;;6.70;1.00;;;6.62;69.46;101611.81;4827614;29;20209;-68
2022/04/27 03:47:43;;;;;;;7.53;4.28;;;6.70;1.00;;;6.78;68.89;101622.66;4826322;29;20213;-67
2022/04/27 03:50:14;;;;;;;9.18;5.38;;;6.80;1.00;;;6.84;68.55;101616.63;4826228;29;20360;-68
2022/04/27 03:52:48;;;;;;;8.85;6.53;;;6.80;1.00;;;6.68;69.06;101616.56;4825698;29;20208;-68
2022/04/27 03:55:17;;;;;;;5.22;4.30;;;6.80;1.00;;;6.66;69.19;101626.63;4825656;29;20212;-68
2022/04/27 03:57:50;;;;;;;7.28;5.07;;;6.80;1.00;;;6.70;68.84;101628.00;4825514;29;20196;-69
2022/04/27 04:00:21;;;;;;;8.35;5.70;;;6.80;1.00;;;6.73;69.03;101638.47;4825226;29;20230;-70
2022/04/27 04:03:00;;;;;;;6.57;5.90;;;6.80;1.00;;;6.76;68.93;101632.75;4824999;29;20636;-68
2022/04/27 04:05:30;;;;;;;6.25;5.25;;;6.80;1.00;;;6.77;68.69;101629.91;4825185;29;20231;-69
2022/04/27 04:07:59;;;;;;;12.23;5.93;;;6.80;1.00;;;6.77;68.99;101643.34;4825702;29;20284;-69
2022/04/27 04:10:28;;;;;;;8.27;6.00;;;6.80;1.00;;;7.07;67.82;101633.09;4825383;29;20263;-69
2022/04/27 04:12:59;;;;;;;10.48;5.95;;;6.90;1.00;;;7.15;67.69;101641.19;4825601;29;20224;-67
2022/04/27 04:15:46;;;;;;;10.48;7.43;;;7.00;1.00;;;7.66;66.49;101648.25;4829045;29;20192;-68
2022/04/27 04:18:24;;;;;;;6.72;5.63;;;7.20;1.00;;;8.51;64.31;101647.84;4827239;29;20192;-69
2022/04/27 04:21:19;;;;;;;9.98;4.95;;;7.60;1.00;;;9.39;61.16;101648.56;4829024;29;20791;-67
2022/04/27 04:24:11;;;;;;;7.82;6.20;;;8.10;1.00;;;10.26;58.06;101646.53;4826179;29;20608;-69
2022/04/27 04:29:35;;;;;;;8.52;5.07;;;9.30;1.00;;;11.20;55.10;101648.59;4824411;29;20208;-69
2022/04/27 04:32:05;;;;;;;10.05;5.30;;;9.80;1.00;;;11.63;54.16;101649.53;4824377;29;20254;-70
2022/04/27 04:34:37;;;;;;;8.18;5.22;;;9.90;1.00;;;12.16;52.68;101661.84;4825730;29;20263;-69
2022/04/27 04:37:08;;;;;;;10.02;5.88;;;10.20;1.00;;;12.47;52.05;101662.34;4824159;29;20216;-69
2022/04/27 04:39:37;;;;;;;11.85;6.22;;;10.40;1.00;;;12.92;50.91;101665.59;4823924;29;20630;-70
2022/04/27 04:42:08;;;;;;;9.63;5.55;;;10.50;1.00;;;13.11;50.15;101666.78;4823811;29;20270;-69
2022/04/27 04:44:40;;;;;;;10.13;6.03;;;10.60;1.00;;;13.36;49.13;101674.25;4823797;29;20247;-68
2022/04/27 04:47:29;;;;;;;9.27;6.17;;;11.00;1.00;;;13.93;48.48;101675.72;4824399;29;20209;-68
2022/04/27 04:50:27;;;;;;;9.77;6.82;;;11.50;1.00;;;13.78;48.49;101683.22;4822941;29;21129;-67
2022/04/27 04:53:07;;;;;;;7.90;6.40;;;11.90;1.00;;;14.32;47.32;101680.41;4824185;29;20200;-68
2022/04/27 04:56:14;;;;;;;7.40;5.13;;;12.10;1.00;;;13.89;47.54;101685.34;4824822;29;20552;-69
2022/04/27 04:59:00;;;;;;;8.20;5.30;;;12.20;1.00;;;12.27;50.87;101685.75;4823950;29;20445;-68
2022/04/27 05:02:03;;;;;;;8.00;5.00;;;11.70;1.00;;;11.47;53.01;101696.72;4823819;29;20534;-67
2022/04/27 05:04:53;;;;;;;7.87;3.93;;;11.30;1.00;;;10.86;55.32;101697.88;4824527;29;20509;-67
2022/04/27 05:07:51;;;;;;;9.23;5.78;;;10.80;1.00;;;11.11;54.71;101701.19;4825472;29;20446;-69
2022/04/27 05:10:38;;;;;;;7.97;5.22;;;10.50;1.00;;;11.45;53.13;101697.91;4825873;29;20369;-68
2022/04/27 05:13:12;;;;;;;5.37;4.87;;;10.70;1.00;;;11.74;52.42;101709.59;4839997;29;20188;-67
2022/04/27 05:16:20;;;;;;;10.07;5.75;;;10.70;1.00;;;11.50;52.98;101718.00;4860275;29;20512;-71
2022/04/27 05:19:16;;;;;;;8.40;6.13;;;10.70;1.00;;;10.73;54.97;101720.19;4846757;29;20211;-68
2022/04/27 05:22:12;;;;;;;12.05;6.93;;;10.40;1.00;;;9.79;56.97;101725.03;4844805;29;20428;-69
2022/04/27 05:24:52;;;;;;;9.55;6.30;;;9.90;1.00;;;9.62;57.41;101727.00;4844178;29;20288;-70
2022/04/27 05:27:28;;;;;;;12.00;5.10;;;9.70;1.00;;;9.49;58.32;101732.09;4832327;29;20494;-68
2022/04/27 05:33:25;;;;;;;7.07;5.35;;;9.50;1.00;;;9.90;57.27;101728.22;4845296;29;20276;-70
2022/04/27 05:36:16;;;;;;;8.20;5.32;;;9.60;1.00;;;9.95;57.27;101736.63;4846082;29;20193;-69
2022/04/27 05:39:04;;;;;;;8.45;5.65;;;9.80;1.00;;;10.38;56.18;101728.94;4845728;29;20214;-70
2022/04/27 05:42:06;;;;;;;6.25;4.53;;;10.00;1.00;;;10.44;55.69;101730.94;4844204;29;20238;-70
2022/04/27 05:45:04;;;;;;;8.73;5.07;;;10.10;1.00;;;10.81;55.49;101732.78;4836123;29;20220;-68
2022/04/27 05:47:44;;;;;;;5.00;3.85;;;10.40;1.00;;;11.07;54.45;101737.81;4824717;29;20697;-70
2022/04/27 05:50:19;;;;;;;10.13;5.50;;;10.60;1.00;;;11.30;53.41;101742.13;4824285;29;20314;-69
2022/04/27 05:53:16;;;;;;;8.85;5.20;;;10.90;1.00;;;11.26;53.15;101743.53;4824854;29;20212;-69
2022/04/27 05:56:05;;;;;;;8.75;5.35;;;11.00;1.00;;;10.98;53.34;101749.75;4823008;29;20209;-67
2022/04/27 05:58:54;;;;;;;7.72;6.63;;;10.90;1.00;;;10.27;54.91;101757.25;4820076;29;20573;-66
2022/04/27 06:01:36;;;;;;;8.90;5.85;;;10.50;1.00;;;10.46;55.09;101755.91;4803866;29;20229;-67
2022/04/27 06:04:11;;;;;;;7.30;5.28;;;10.40;1.00;;;10.74;54.26;101757.06;4803107;29;20205;-67
2022/04/27 06:06:45;;;;;;;6.30;5.40;;;10.60;1.00;;;10.50;54.19;101759.13;4803359;29;20208;-67
2022/04/27 06:09:19;;;;;;;10.45;6.35;;;10.50;1.00;;;10.69;53.66;101767.59;4795710;29;20198;-66
2022/04/27 06:11:55;;;;;;;7.50;6.45;;;10.60;1.00;;;10.84;53.47;101771.16;4790640;29;20229;-68
2022/04/27 06:14:39;;;;;;;6.60;5.55;;;10.70;1.00;;;11.18;52.50;101772.56;4787730;29;20297;-68
2022/04/27 06:17:18;;;;;;;13.65;10.02;;;10.90;1.00;;;11.37;52.26;101768.47;4785970;29;21099;-69
2022/04/27 06:19:48;;;;;;;12.43;5.93;;;11.10;1.00;;;11.63;51.09;101777.81;4796039;29;20233;-70
2022/04/27 06:22:20;;;;;;;21.80;15.50;;;11.40;1.00;;;11.81;50.40;101782.91;4803804;29;20462;-68
2022/04/27 06:24:51;;;;;;;43.20;27.87;;;11.60;1.00;;;11.66;49.77;101782.88;4803725;29;20474;-69
2022/04/27 06:27:46;;;;;;;15.27;8.17;;;11.70;1.00;;;11.66;49.84;101782.88;4804087;29;20967;-68
2022/04/27 06:30:15;;;;;;;12.70;9.03;;;11.70;1.00;;;11.77;49.70;101785.13;4803880;29;20495;-68
2022/04/27 06:32:47;;;;;;;16.30;14.07;;;11.70;1.00;;;11.92;48.96;101787.81;4805250;29;20964;-68
2022/04/27 06:35:16;;;;;;;15.60;10.80;;;11.80;1.00;;;11.55;49.81;101786.06;4809147;29;20443;-68
2022/04/27 06:37:49;;;;;;;13.63;5.60;;;11.70;1.00;;;11.74;49.67;101790.94;4811649;29;20459;-69
2022/04/27 06:40:22;;;;;;;9.37;5.80;;;11.70;1.00;;;11.96;49.06;101788.28;4803702;29;20478;-71
2022/04/27 06:42:52;;;;;;;10.40;6.40;;;11.80;1.00;;;12.05;49.24;101790.69;4804077;29;20751;-68
2022/04/27 06:45:40;;;;;;;14.30;11.13;;;12.00;1.00;;;12.20;49.07;101786.06;4805388;29;20968;-70
2022/04/27 06:48:28;;;;;;;6.50;4.90;;;12.10;1.00;;;12.26;48.85;101784.47;4804666;29;20778;-68
2022/04/27 06:51:18;;;;;;;9.80;8.17;;;12.20;1.00;;;12.09;49.59;101797.44;4804895;29;20446;-68
2022/04/27 06:54:05;;;;;;;10.03;8.50;;;12.10;1.00;;;12.15;49.59;101793.94;4810267;29;21017;-68
2022/04/27 06:56:54;;;;;;;9.10;5.93;;;12.20;1.00;;;12.50;49.19;101796.84;4813644;29;20446;-70
2022/04/27 06:59:42;;;;;;;8.73;5.57;;;12.30;1.00;;;12.53;48.38;101797.31;4815048;29;20470;-69
2022/04/27 07:02:15;;;;;;;7.90;5.83;;;12.50;1.00;;;12.60;48.26;101792.78;4815014;29;20455;-69
2022/04/27 07:04:51;;;;;;;7.53;6.50;;;12.60;1.00;;;12.76;48.15;101798.97;4819247;29;20430;-70
2022/04/27 07:07:20;;;;;;;9.80;6.07;;;12.60;1.00;;;12.78;47.23;101784.16;4824679;29;20479;-70
2022/04/27 07:09:49;;;;;;;8.00;5.00;;;12.70;1.00;;;12.90;47.28;101798.06;4826643;29;20453;-70
2022/04/27 07:12:19;;;;;;;8.20;7.40;;;12.80;1.00;;;13.15;46.65;101806.69;4825461;29;20443;-69
2022/04/27 07:14:48;;;;;;;8.27;5.30;;;13.00;1.00;;;12.93;46.89;101803.94;4825057;29;20427;-69
2022/04/27 07:17:17;;;;;;;6.37;5.10;;;13.00;1.00;;;13.08;46.90;101810.13;4826096;29;20669;-71
2022/04/27 07:19:46;;;;;;;8.10;5.90;;;13.00;1.00;;;13.40;46.51;101810.63;4826234;29;20425;-70
2022/04/27 07:22:15;;;;;;;7.03;5.43;;;13.20;1.00;;;13.52;45.55;101819.91;4824205;29;20419;-69
2022/04/27 07:24:45;;;;;;;9.13;5.50;;;13.40;1.00;;;13.21;46.27;101811.34;4823136;29;20423;-69
2022/04/27 07:27:14;;;;;;;12.40;6.37;;;13.20;1.00;;;13.20;46.55;101815.94;4820855;29;20994;-69
2022/04/27 07:29:45;;;;;;;7.13;5.30;;;13.20;1.00;;;13.24;46.48;101817.22;4818941;29;20402;-71
2022/04/27 07:32:14;;;;;;;6.93;4.90;;;13.20;1.00;;;13.25;45.89;101824.34;4817510;29;20427;-69
2022/04/27 07:34:43;;;;;;;6.90;6.20;;;13.20;1.00;;;13.40;46.02;101827.78;4815154;29;20423;-69
2022/04/27 07:37:12;;;;;;;8.60;5.93;;;13.30;1.00;;;13.60;45.49;101827.94;4809049;29;20956;-70
2022/04/27 07:39:41;;;;;;;6.03;4.80;;;13.50;1.00;;;13.47;45.07;101834.09;4811792;29;20544;-69
2022/04/27 07:42:10;;;;;;;6.50;4.33;;;13.50;1.00;;;13.57;44.90;101819.31;4811311;29;20500;-67
2022/04/27 07:44:39;;;;;;;4.77;4.00;;;13.50;1.00;;;13.68;43.83;101824.19;4815619;29;20506;-69
2022/04/27 07:47:09;;;;;;;6.20;4.33;;;13.60;1.00;;;13.64;43.74;101823.78;4812896;29;21053;-68
2022/04/27 07:49:38;;;;;;;7.17;4.30;;;13.60;1.00;;;13.64;44.16;101826.50;4809333;29;20408;-69
2022/04/27 07:52:08;;;;;;;6.00;4.27;;;13.60;1.00;;;13.73;43.61;101832.59;4807846;29;20455;-65
2022/04/27 07:54:37;;;;;;;6.97;4.63;;;13.60;1.00;;;13.75;43.73;101835.94;4808382;29;20468;-67
2022/04/27 07:57:05;;;;;;;5.80;4.07;;;13.70;1.00;;;13.74;43.75;101834.28;4805434;29;20425;-68
2022/04/27 07:59:34;;;;;;;5.67;4.30;;;13.80;1.00;;;14.00;42.12;101839.84;4806123;29;20454;-68
2022/04/27 08:02:05;;;;;;;4.63;3.40;;;13.90;1.00;;;14.17;42.33;101837.66;4811512;29;20463;-69
2022/04/27 08:04:35;;;;;;;5.40;3.80;;;14.00;1.00;;;14.34;40.98;101845.25;4812480;29;20503;-69
2022/04/27 08:07:04;;;;;;;4.87;3.63;;;14.20;1.00;;;14.20;41.66;101845.41;4805071;29;20507;-69
2022/04/27 08:09:33;;;;;;;4.73;3.40;;;14.10;1.00;;;14.07;41.53;101843.47;4802957;29;20467;-68
2022/04/27 08:12:03;;;;;;;5.00;3.50;;;14.10;1.00;;;14.18;41.12;101842.91;4830575;24;20494;-67
2022/04/27 08:14:33;;;;;;;4.43;3.23;;;14.20;1.00;;;14.29;41.18;101842.28;4824356;29;20928;-67
2022/04/27 08:17:03;;;;;;;6.90;6.07;;;14.10;1.00;;;14.40;41.51;101840.06;4823949;29;20913;-67
2022/04/27 08:19:34;;;;;;;5.87;4.50;;;14.20;1.00;;;14.69;41.17;101845.19;4825645;29;20434;-68
2022/04/27 08:22:06;;;;;;;3.27;2.40;;;14.50;1.00;;;14.43;39.91;101845.09;4827223;29;20802;-67
2022/04/27 08:24:40;;;;;;;4.00;2.60;;;14.40;1.00;;;14.28;39.38;101837.88;4826693;29;20956;-68
2022/04/27 08:27:09;;;;;;;3.63;2.83;;;14.40;1.00;;;14.32;39.64;101846.50;4826368;29;20858;-67
2022/04/27 08:29:37;;;;;;;13.23;10.70;;;14.30;1.00;;;14.76;39.21;101840.59;4826026;29;20411;-68
2022/04/27 08:32:07;;;;;;;15.77;14.20;;;14.50;1.00;;;14.89;39.16;101840.59;4825771;29;20460;-67
2022/04/27 08:34:37;;;;;;;9.17;8.37;;;14.60;1.00;;;15.07;38.40;101850.88;4825941;29;20418;-67
2022/04/27 08:37:06;;;;;;;5.03;3.50;;;14.90;1.00;;;14.88;38.79;101849.81;4826175;29;20438;-67
2022/04/27 08:39:35;;;;;;;4.37;3.97;;;14.80;1.00;;;14.89;38.16;101848.78;4826054;29;20532;-69
2022/04/27 08:42:05;;;;;;;5.17;4.67;;;14.80;1.00;;;14.93;37.60;101846.47;4825783;29;20968;-67
2022/04/27 08:44:34;;;;;;;6.67;6.17;;;14.80;1.00;;;14.93;37.59;101850.03;4825823;29;20533;-68
2022/04/27 08:47:05;;;;;;;3.53;2.73;;;14.90;1.00;;;15.18;37.97;101858.44;4825813;29;20990;-67
2022/04/27 08:49:35;;;;;;;12.37;8.23;;;14.90;1.00;;;14.76;38.92;101852.31;4825681;29;20426;-67
2022/04/27 08:52:08;;;;;;;4.10;3.50;;;14.80;1.00;;;14.80;39.21;101855.47;4825823;29;20446;-68
2022/04/27 08:54:37;;;;;;;7.10;3.30;;;14.80;1.00;;;15.10;38.36;101858.66;4825643;29;20441;-67
2022/04/27 08:57:07;;;;;;;4.40;3.20;;;14.90;1.00;;;15.34;38.19;101860.78;4825753;29;20398;-69
2022/04/27 08:59:37;;;;;;;4.07;2.70;;;15.00;1.00;;;15.36;37.28;101857.81;4825674;29;20437;-67
2022/04/27 09:02:25;;;;;;;4.77;3.67;;;15.10;1.00;;;15.60;37.56;101855.31;4825405;29;20533;-67
2022/04/27 09:05:09;;;;;;;4.60;4.20;;;15.30;1.00;;;15.71;36.40;101856.56;4825363;29;20418;-67
2022/04/27 09:07:45;;;;;;;6.90;6.20;;;15.50;1.00;;;15.78;36.13;101865.56;4825718;29;20469;-67
2022/04/27 09:10:15;;;;;;;2.53;2.33;;;15.60;1.00;;;16.13;36.05;101865.25;4825589;29;20438;-67
2022/04/27 09:12:48;;;;;;;3.70;2.80;;;15.80;1.00;;;16.01;35.69;101868.69;4825488;29;20922;-68
2022/04/27 09:15:19;;;;;;;3.47;1.80;;;15.90;1.00;;;15.26;35.97;101874.59;4825774;29;20434;-67
2022/04/27 09:20:50;;;;;;;3.33;2.47;;;15.40;1.00;;;16.26;35.29;101866.06;4825838;29;20454;-67
2022/04/27 09:23:26;;;;;;;10.00;5.17;;;15.80;1.00;;;16.08;35.11;101858.56;4825258;29;20808;-67
2022/04/27 09:26:00;;;;;;;3.70;2.83;;;15.90;1.00;;;16.49;33.39;101871.00;4825639;29;20401;-66
2022/04/27 09:28:32;;;;;;;2.50;1.77;;;16.20;1.00;;;16.61;32.47;101866.53;4825070;29;20849;-67
2022/04/27 09:31:01;;;;;;;2.03;1.83;;;16.30;1.00;;;17.03;31.90;101856.00;4823913;29;21027;-66
2022/04/27 09:33:35;;;;;;;6.23;5.30;;;16.60;1.00;;;17.14;32.87;101864.31;4824821;29;20397;-67
2022/04/27 09:36:23;;;;;;;12.03;7.20;;;16.90;1.00;;;16.79;33.93;101858.47;4825125;29;20892;-67
2022/04/27 09:38:55;;;;;;;3.07;2.43;;;16.70;1.00;;;16.54;34.54;101860.25;4824959;29;20412;-67
2022/04/27 09:41:42;;;;;;;2.83;2.50;;;16.40;1.00;;;16.70;33.69;101857.03;4825089;29;20539;-66
2022/04/27 09:44:28;;;;;;;3.67;2.90;;;16.60;1.00;;;16.09;34.21;101860.25;4824786;29;20714;-66
2022/04/27 09:46:59;;;;;;;2.93;1.60;;;16.20;1.00;;;15.66;34.43;101861.81;4826570;29;20470;-66
2022/04/27 09:49:27;;;;;;;3.10;1.97;;;15.90;1.00;;;15.63;34.53;101859.53;4824808;29;20422;-66
2022/04/27 09:52:01;;;;;;;2.10;1.60;;;15.60;1.00;;;15.54;34.02;101868.97;4824420;29;20509;-67
2022/04/27 09:54:36;;;;;;;2.63;2.10;;;15.60;1.00;;;15.58;34.23;101870.22;4824612;29;20436;-66
2022/04/27 09:57:08;;;;;;;2.00;1.80;;;15.50;1.00;;;16.12;34.24;101860.88;4824616;29;20418;-66
2022/04/27 09:59:38;;;;;;;3.17;2.40;;;15.70;1.00;;;16.43;33.05;101871.88;4824774;29;20438;-65
2022/04/27 10:02:10;;;;;;;2.40;1.70;;;16.10;1.00;;;16.50;32.78;101867.22;4824529;29;20428;-65
2022/04/27 10:04:42;;;;;;;2.53;2.20;;;16.30;1.00;;;16.62;33.03;101870.97;4824808;29;20422;-67
2022/04/27 10:07:13;;;;;;;3.20;2.20;;;16.40;1.00;;;16.22;33.52;101866.69;4825934;29;20485;-66
2022/04/27 10:09:44;;;;;;;3.63;2.30;;;16.30;1.00;;;16.61;32.68;101872.00;4825118;29;20458;-67
2022/04/27 10:12:13;;;;;;;4.10;2.10;;;16.40;1.00;;;17.10;32.05;101868.56;4824676;29;20473;-68
2022/04/27 10:14:43;;;;;;;2.50;2.30;;;16.70;1.00;;;17.29;31.69;101866.72;4823497;29;20783;-67
2022/04/27 10:17:13;;;;;;;2.70;2.17;;;16.80;1.00;;;17.73;31.32;101862.97;4824773;29;20434;-66
2022/04/27 10:19:47;;;;;;;3.40;2.30;;;17.20;1.00;;;17.01;32.35;101858.09;4824886;29;20438;-66
2022/04/27 10:22:31;;;;;;;3.30;2.13;;;16.90;1.00;;;16.85;33.22;101859.47;4824893;29;20451;-68
2022/04/27 10:25:07;;;;;;;2.03;1.83;;;16.80;1.00;;;16.79;33.26;101866.69;4832028;29;20477;-67
2022/04/27 10:27:41;;;;;;;1.90;1.70;;;16.70;1.00;;;16.65;33.61;101869.69;4837898;29;20461;-66
2022/04/27 10:30:12;;;;;;;2.77;1.80;;;16.50;1.00;;;16.75;33.55;101867.34;4835705;29;20464;-66
2022/04/27 10:32:44;;;;;;;4.33;2.33;;;16.50;1.00;;;16.79;32.94;101861.22;4837268;29;20424;-67
2022/04/27 10:35:25;;;;;;;2.63;2.20;;;16.60;1.00;;;16.69;32.94;101863.59;4830463;29;20401;-68
2022/04/27 10:37:57;;;;;;;2.87;1.93;;;16.50;1.00;;;17.29;31.44;101861.25;4825015;29;20419;-67
2022/04/27 10:40:35;;;;;;;3.20;2.60;;;16.90;1.00;;;17.30;31.71;101861.03;4825141;29;20729;-67
2022/04/27 10:43:13;;;;;;;2.30;2.00;;;17.10;1.00;;;17.56;31.82;101861.88;4824678;29;20475;-67
2022/04/27 10:45:45;;;;;;;2.53;1.93;;;17.30;1.00;;;17.79;32.11;101862.94;4824764;29;20426;-67
2022/04/27 10:48:17;;;;;;;3.93;2.90;;;17.50;1.00;;;17.22;32.75;101865.94;4824404;29;20477;-66
2022/04/27 10:50:58;;;;;;;3.20;2.20;;;17.30;1.00;;;16.55;33.46;101861.94;4824268;29;20955;-67
2022/04/27 10:53:29;;;;;;;2.23;1.60;;;16.70;1.00;;;16.45;33.60;101870.63;4823745;29;20441;-67
2022/04/27 10:56:24;;;;;;;2.43;1.80;;;16.40;1.00;;;16.22;33.51;101863.97;4823784;29;20434;-67
2022/04/27 10:58:54;;;;;;;3.50;2.07;;;16.20;1.00;;;16.47;33.86;101864.91;4823757;29;20385;-66
2022/04/27 11:01:29;;;;;;;1.93;1.73;;;16.20;1.00;;;16.82;33.67;101859.91;4824244;29;20454;-65
2022/04/27 11:04:13;;;;;;;4.10;1.93;;;16.40;1.00;;;17.63;32.22;101860.75;4823584;29;20971;-67
2022/04/27 11:07:34;;;;;;;1.90;1.60;;;17.00;1.00;;;18.15;31.08;101850.31;4821994;29;20420;-67